sensor_id;sensor_type;location;lat;lon;timestamp;P1;durP1;ratioP1;P2;durP2;ratioP2
31336;SDS011;22846;42.654;23.314;2023-02-15T00:01:44;9.98;;;8.05;;
31336;SDS011;22846;42.654;23.314;2023-02-15T00:04:12;10.52;;;7.95;;
31336;SDS011;22846;42.654;23.314;2023-02-15T00:06:39;10.07;;;7.80;;
31336;SDS011;22846;42.654;23.314;2023-02-15T00:09:05;10.65;;;8.30;;
31336;SDS011;22846;42.654;23.314;2023-02-15T00:11:30;10.48;;;7.97;;
31336;SDS011;22846;42.654;23.314;2023-02-15T00:14:23;11.18;;;8.23;;
31336;SDS011;22846;42.654;23.314;2023-02-15T00:16:50;10.20;;;7.80;;
31336;SDS011;22846;42.654;23.314;2023-02-15T00:19:17;9.48;;;7.80;;
31336;SDS011;22846;42.654;23.314;2023-02-15T00:21:44;10.10;;;8.02;;
31336;SDS011;22846;42.654;23.314;2023-02-15T00:24:12;9.35;;;7.72;;
31336;SDS011;22846;42.654;23.314;2023-02-15T00:26:39;11.77;;;8.70;;
31336;SDS011;22846;42.654;23.314;2023-02-15T00:29:05;9.82;;;7.65;;
31336;SDS011;22846;42.654;23.314;2023-02-15T00:31:31;9.68;;;7.45;;
31336;SDS011;22846;42.654;23.314;2023-02-15T00:34:01;9.43;;;7.38;;
31336;SDS011;22846;42.654;23.314;2023-02-15T00:36:27;10.02;;;7.90;;
31336;SDS011;22846;42.654;23.314;2023-02-15T00:38:52;8.65;;;7.05;;
31336;SDS011;22846;42.654;23.314;2023-02-15T00:41:17;11.20;;;8.05;;
31336;SDS011;22846;42.654;23.314;2023-02-15T00:43:43;9.93;;;7.38;;
31336;SDS011;22846;42.654;23.314;2023-02-15T00:46:08;8.85;;;7.40;;
31336;SDS011;22846;42.654;23.314;2023-02-15T00:48:33;10.77;;;8.05;;
31336;SDS011;22846;42.654;23.314;2023-02-15T00:50:59;10.10;;;7.80;;
31336;SDS011;22846;42.654;23.314;2023-02-15T00:53:26;9.65;;;7.75;;
31336;SDS011;22846;42.654;23.314;2023-02-15T00:55:52;9.82;;;7.68;;
31336;SDS011;22846;42.654;23.314;2023-02-15T00:58:17;9.95;;;7.97;;
31336;SDS011;22846;42.654;23.314;2023-02-15T01:00:44;9.13;;;7.55;;
31336;SDS011;22846;42.654;23.314;2023-02-15T01:03:11;9.32;;;7.03;;
31336;SDS011;22846;42.654;23.314;2023-02-15T01:05:38;8.90;;;6.88;;
31336;SDS011;22846;42.654;23.314;2023-02-15T01:08:03;10.25;;;7.38;;
31336;SDS011;22846;42.654;23.314;2023-02-15T01:10:29;9.65;;;7.07;;
31336;SDS011;22846;42.654;23.314;2023-02-15T01:12:55;9.00;;;6.90;;
31336;SDS011;22846;42.654;23.314;2023-02-15T01:15:21;9.20;;;7.40;;
31336;SDS011;22846;42.654;23.314;2023-02-15T01:17:47;8.13;;;7.07;;
31336;SDS011;22846;42.654;23.314;2023-02-15T01:20:19;8.38;;;6.45;;
31336;SDS011;22846;42.654;23.314;2023-02-15T01:22:46;9.45;;;7.55;;
31336;SDS011;22846;42.654;23.314;2023-02-15T01:25:12;9.25;;;6.90;;
31336;SDS011;22846;42.654;23.314;2023-02-15T01:27:37;7.78;;;6.68;;
31336;SDS011;22846;42.654;23.314;2023-02-15T01:30:02;8.55;;;7.00;;
31336;SDS011;22846;42.654;23.314;2023-02-15T01:32:29;8.30;;;6.97;;
31336;SDS011;22846;42.654;23.314;2023-02-15T01:34:55;7.63;;;6.50;;
31336;SDS011;22846;42.654;23.314;2023-02-15T01:37:21;8.05;;;7.00;;
31336;SDS011;22846;42.654;23.314;2023-02-15T01:39:46;8.90;;;7.05;;
31336;SDS011;22846;42.654;23.314;2023-02-15T01:42:12;9.90;;;7.18;;
31336;SDS011;22846;42.654;23.314;2023-02-15T01:47:25;8.77;;;7.00;;
31336;SDS011;22846;42.654;23.314;2023-02-15T01:49:59;8.50;;;6.85;;
31336;SDS011;22846;42.654;23.314;2023-02-15T01:52:28;7.53;;;6.47;;
31336;SDS011;22846;42.654;23.314;2023-02-15T01:54:54;8.55;;;6.60;;
31336;SDS011;22846;42.654;23.314;2023-02-15T01:57:22;8.13;;;6.72;;
31336;SDS011;22846;42.654;23.314;2023-02-15T01:59:52;8.02;;;6.20;;
31336;SDS011;22846;42.654;23.314;2023-02-15T02:02:22;9.00;;;6.60;;
31336;SDS011;22846;42.654;23.314;2023-02-15T02:04:52;7.18;;;6.05;;
31336;SDS011;22846;42.654;23.314;2023-02-15T02:07:24;8.07;;;6.63;;
31336;SDS011;22846;42.654;23.314;2023-02-15T02:09:52;7.63;;;6.55;;
31336;SDS011;22846;42.654;23.314;2023-02-15T02:12:18;8.50;;;6.80;;
31336;SDS011;22846;42.654;23.314;2023-02-15T02:14:46;8.55;;;6.68;;
31336;SDS011;22846;42.654;23.314;2023-02-15T02:20:07;7.78;;;6.15;;
31336;SDS011;22846;42.654;23.314;2023-02-15T02:38:53;8.00;;;6.80;;
31336;SDS011;22846;42.654;23.314;2023-02-15T02:49:06;6.38;;;5.43;;
31336;SDS011;22846;42.654;23.314;2023-02-15T02:51:31;7.63;;;6.40;;
31336;SDS011;22846;42.654;23.314;2023-02-15T02:53:58;7.57;;;6.55;;
31336;SDS011;22846;42.654;23.314;2023-02-15T02:59:09;8.68;;;6.07;;
31336;SDS011;22846;42.654;23.314;2023-02-15T03:01:44;8.50;;;6.32;;
31336;SDS011;22846;42.654;23.314;2023-02-15T03:04:18;8.35;;;6.28;;
31336;SDS011;22846;42.654;23.314;2023-02-15T03:06:55;6.22;;;5.60;;
31336;SDS011;22846;42.654;23.314;2023-02-15T03:09:37;6.82;;;5.72;;
31336;SDS011;22846;42.654;23.314;2023-02-15T03:12:09;7.57;;;6.05;;
31336;SDS011;22846;42.654;23.314;2023-02-15T03:14:39;6.72;;;6.03;;
31336;SDS011;22846;42.654;23.314;2023-02-15T03:17:06;8.07;;;6.25;;
31336;SDS011;22846;42.654;23.314;2023-02-15T03:19:33;6.35;;;5.32;;
31336;SDS011;22846;42.654;23.314;2023-02-15T03:22:03;7.10;;;5.90;;
31336;SDS011;22846;42.654;23.314;2023-02-15T03:27:27;7.05;;;5.60;;
31336;SDS011;22846;42.654;23.314;2023-02-15T03:29:59;7.95;;;6.05;;
31336;SDS011;22846;42.654;23.314;2023-02-15T03:32:28;5.95;;;5.35;;
31336;SDS011;22846;42.654;23.314;2023-02-15T03:34:56;6.88;;;6.00;;
31336;SDS011;22846;42.654;23.314;2023-02-15T03:37:43;6.95;;;5.30;;
31336;SDS011;22846;42.654;23.314;2023-02-15T03:40:19;6.18;;;5.28;;
31336;SDS011;22846;42.654;23.314;2023-02-15T03:49:02;5.80;;;5.20;;
31336;SDS011;22846;42.654;23.314;2023-02-15T03:51:33;6.00;;;5.30;;
31336;SDS011;22846;42.654;23.314;2023-02-15T03:54:36;6.43;;;5.72;;
31336;SDS011;22846;42.654;23.314;2023-02-15T03:57:10;6.82;;;5.57;;
31336;SDS011;22846;42.654;23.314;2023-02-15T04:00:05;7.05;;;5.75;;
31336;SDS011;22846;42.654;23.314;2023-02-15T04:05:41;6.28;;;5.05;;
31336;SDS011;22846;42.654;23.314;2023-02-15T04:08:08;5.15;;;4.50;;
31336;SDS011;22846;42.654;23.314;2023-02-15T04:10:34;6.05;;;4.60;;
31336;SDS011;22846;42.654;23.314;2023-02-15T04:13:18;6.97;;;5.00;;
31336;SDS011;22846;42.654;23.314;2023-02-15T04:15:45;5.55;;;4.50;;
31336;SDS011;22846;42.654;23.314;2023-02-15T04:18:29;5.00;;;4.47;;
31336;SDS011;22846;42.654;23.314;2023-02-15T04:21:13;4.80;;;4.30;;
31336;SDS011;22846;42.654;23.314;2023-02-15T04:23:57;4.97;;;3.97;;
31336;SDS011;22846;42.654;23.314;2023-02-15T04:26:41;5.80;;;4.47;;
31336;SDS011;22846;42.654;23.314;2023-02-15T04:29:07;5.13;;;4.05;;
31336;SDS011;22846;42.654;23.314;2023-02-15T04:31:32;4.85;;;4.35;;
31336;SDS011;22846;42.654;23.314;2023-02-15T04:33:57;5.45;;;4.47;;
31336;SDS011;22846;42.654;23.314;2023-02-15T04:36:23;5.28;;;4.50;;
31336;SDS011;22846;42.654;23.314;2023-02-15T04:38:48;4.97;;;4.18;;
31336;SDS011;22846;42.654;23.314;2023-02-15T04:41:13;5.22;;;3.92;;
31336;SDS011;22846;42.654;23.314;2023-02-15T04:43:39;4.88;;;4.30;;
31336;SDS011;22846;42.654;23.314;2023-02-15T04:46:04;4.55;;;3.88;;
31336;SDS011;22846;42.654;23.314;2023-02-15T04:48:30;5.13;;;4.28;;
31336;SDS011;22846;42.654;23.314;2023-02-15T04:50:55;4.68;;;3.95;;
31336;SDS011;22846;42.654;23.314;2023-02-15T04:53:21;4.40;;;4.00;;
31336;SDS011;22846;42.654;23.314;2023-02-15T04:55:46;4.50;;;4.10;;
31336;SDS011;22846;42.654;23.314;2023-02-15T04:58:11;4.82;;;4.00;;
31336;SDS011;22846;42.654;23.314;2023-02-15T05:00:37;5.25;;;4.20;;
31336;SDS011;22846;42.654;23.314;2023-02-15T05:03:02;10.27;;;4.75;;
31336;SDS011;22846;42.654;23.314;2023-02-15T05:05:28;8.77;;;5.40;;
31336;SDS011;22846;42.654;23.314;2023-02-15T05:07:53;19.92;;;12.40;;
31336;SDS011;22846;42.654;23.314;2023-02-15T05:10:19;18.95;;;11.05;;
31336;SDS011;22846;42.654;23.314;2023-02-15T05:12:44;18.63;;;9.07;;
31336;SDS011;22846;42.654;23.314;2023-02-15T05:15:10;17.35;;;8.25;;
31336;SDS011;22846;42.654;23.314;2023-02-15T05:17:36;12.88;;;7.75;;
31336;SDS011;22846;42.654;23.314;2023-02-15T05:20:01;14.70;;;8.20;;
31336;SDS011;22846;42.654;23.314;2023-02-15T05:22:27;11.75;;;6.40;;
31336;SDS011;22846;42.654;23.314;2023-02-15T05:24:52;21.33;;;7.35;;
31336;SDS011;22846;42.654;23.314;2023-02-15T05:27:36;22.65;;;7.18;;
31336;SDS011;22846;42.654;23.314;2023-02-15T05:30:20;25.40;;;6.60;;
31336;SDS011;22846;42.654;23.314;2023-02-15T05:32:45;28.40;;;7.55;;
31336;SDS011;22846;42.654;23.314;2023-02-15T05:35:12;24.02;;;8.05;;
31336;SDS011;22846;42.654;23.314;2023-02-15T05:37:39;21.52;;;7.00;;
31336;SDS011;22846;42.654;23.314;2023-02-15T05:40:05;28.42;;;7.43;;
31336;SDS011;22846;42.654;23.314;2023-02-15T05:42:31;34.28;;;9.95;;
31336;SDS011;22846;42.654;23.314;2023-02-15T05:44:56;40.88;;;9.98;;
31336;SDS011;22846;42.654;23.314;2023-02-15T05:47:21;21.15;;;7.93;;
31336;SDS011;22846;42.654;23.314;2023-02-15T05:49:47;22.52;;;7.95;;
31336;SDS011;22846;42.654;23.314;2023-02-15T05:52:12;20.75;;;7.50;;
31336;SDS011;22846;42.654;23.314;2023-02-15T05:54:37;18.88;;;6.65;;
31336;SDS011;22846;42.654;23.314;2023-02-15T05:57:03;21.10;;;7.40;;
31336;SDS011;22846;42.654;23.314;2023-02-15T05:59:28;15.20;;;7.15;;
31336;SDS011;22846;42.654;23.314;2023-02-15T06:01:54;17.40;;;7.13;;
31336;SDS011;22846;42.654;23.314;2023-02-15T06:04:19;18.38;;;7.03;;
31336;SDS011;22846;42.654;23.314;2023-02-15T06:06:45;11.77;;;6.70;;
31336;SDS011;22846;42.654;23.314;2023-02-15T06:09:11;13.77;;;6.50;;
31336;SDS011;22846;42.654;23.314;2023-02-15T06:11:37;14.85;;;7.10;;
31336;SDS011;22846;42.654;23.314;2023-02-15T06:14:03;13.48;;;6.82;;
31336;SDS011;22846;42.654;23.314;2023-02-15T06:16:28;18.73;;;6.63;;
31336;SDS011;22846;42.654;23.314;2023-02-15T06:18:54;13.10;;;7.22;;
31336;SDS011;22846;42.654;23.314;2023-02-15T06:21:19;14.18;;;6.32;;
31336;SDS011;22846;42.654;23.314;2023-02-15T06:23:45;15.48;;;6.88;;
31336;SDS011;22846;42.654;23.314;2023-02-15T06:26:10;11.10;;;5.68;;
31336;SDS011;22846;42.654;23.314;2023-02-15T06:28:35;11.48;;;6.45;;
31336;SDS011;22846;42.654;23.314;2023-02-15T06:31:02;11.85;;;6.30;;
31336;SDS011;22846;42.654;23.314;2023-02-15T06:33:28;13.20;;;6.68;;
31336;SDS011;22846;42.654;23.314;2023-02-15T06:35:55;18.38;;;6.53;;
31336;SDS011;22846;42.654;23.314;2023-02-15T06:38:21;12.77;;;5.63;;
31336;SDS011;22846;42.654;23.314;2023-02-15T06:40:47;12.35;;;6.63;;
31336;SDS011;22846;42.654;23.314;2023-02-15T06:43:12;14.57;;;5.75;;
31336;SDS011;22846;42.654;23.314;2023-02-15T06:45:37;13.38;;;6.32;;
31336;SDS011;22846;42.654;23.314;2023-02-15T06:48:03;10.02;;;6.07;;
31336;SDS011;22846;42.654;23.314;2023-02-15T06:50:31;14.07;;;6.38;;
31336;SDS011;22846;42.654;23.314;2023-02-15T06:52:57;8.77;;;6.22;;
31336;SDS011;22846;42.654;23.314;2023-02-15T06:55:23;12.93;;;6.13;;
31336;SDS011;22846;42.654;23.314;2023-02-15T06:57:49;11.00;;;5.95;;
31336;SDS011;22846;42.654;23.314;2023-02-15T07:00:15;13.20;;;5.63;;
31336;SDS011;22846;42.654;23.314;2023-02-15T07:02:41;8.65;;;5.47;;
31336;SDS011;22846;42.654;23.314;2023-02-15T07:05:06;10.13;;;5.75;;
31336;SDS011;22846;42.654;23.314;2023-02-15T07:07:32;9.30;;;5.93;;
31336;SDS011;22846;42.654;23.314;2023-02-15T07:09:57;12.10;;;5.85;;
31336;SDS011;22846;42.654;23.314;2023-02-15T07:12:22;12.68;;;6.03;;
31336;SDS011;22846;42.654;23.314;2023-02-15T07:15:06;9.50;;;6.05;;
31336;SDS011;22846;42.654;23.314;2023-02-15T07:17:34;9.73;;;6.22;;
31336;SDS011;22846;42.654;23.314;2023-02-15T07:20:00;12.68;;;6.18;;
31336;SDS011;22846;42.654;23.314;2023-02-15T07:22:26;9.95;;;5.68;;
31336;SDS011;22846;42.654;23.314;2023-02-15T07:24:52;10.88;;;6.30;;
31336;SDS011;22846;42.654;23.314;2023-02-15T07:27:19;7.05;;;5.30;;
31336;SDS011;22846;42.654;23.314;2023-02-15T07:29:45;9.10;;;5.72;;
31336;SDS011;22846;42.654;23.314;2023-02-15T07:32:11;10.45;;;5.75;;
31336;SDS011;22846;42.654;23.314;2023-02-15T07:34:36;9.23;;;5.75;;
31336;SDS011;22846;42.654;23.314;2023-02-15T07:37:02;11.05;;;6.43;;
31336;SDS011;22846;42.654;23.314;2023-02-15T07:39:27;8.88;;;5.90;;
31336;SDS011;22846;42.654;23.314;2023-02-15T07:41:53;10.85;;;5.93;;
31336;SDS011;22846;42.654;23.314;2023-02-15T07:44:18;8.77;;;6.20;;
31336;SDS011;22846;42.654;23.314;2023-02-15T07:46:44;7.88;;;5.43;;
31336;SDS011;22846;42.654;23.314;2023-02-15T07:49:09;10.65;;;5.60;;
31336;SDS011;22846;42.654;23.314;2023-02-15T07:51:34;9.25;;;5.10;;
31336;SDS011;22846;42.654;23.314;2023-02-15T07:54:00;9.00;;;5.35;;
31336;SDS011;22846;42.654;23.314;2023-02-15T07:56:25;7.82;;;5.38;;
31336;SDS011;22846;42.654;23.314;2023-02-15T07:58:51;10.05;;;5.60;;
31336;SDS011;22846;42.654;23.314;2023-02-15T08:01:20;7.68;;;5.00;;
31336;SDS011;22846;42.654;23.314;2023-02-15T08:03:49;9.90;;;5.82;;
31336;SDS011;22846;42.654;23.314;2023-02-15T08:06:15;10.25;;;5.07;;
31336;SDS011;22846;42.654;23.314;2023-02-15T08:08:41;8.00;;;5.53;;
31336;SDS011;22846;42.654;23.314;2023-02-15T08:18:56;8.30;;;5.05;;
31336;SDS011;22846;42.654;23.314;2023-02-15T08:21:24;10.20;;;5.20;;
31336;SDS011;22846;42.654;23.314;2023-02-15T08:23:52;8.70;;;5.90;;
31336;SDS011;22846;42.654;23.314;2023-02-15T08:26:17;7.97;;;5.53;;
31336;SDS011;22846;42.654;23.314;2023-02-15T08:28:43;7.57;;;4.65;;
31336;SDS011;22846;42.654;23.314;2023-02-15T08:31:13;7.03;;;5.28;;
31336;SDS011;22846;42.654;23.314;2023-02-15T08:33:40;8.23;;;4.97;;
31336;SDS011;22846;42.654;23.314;2023-02-15T08:36:10;5.78;;;4.65;;
31336;SDS011;22846;42.654;23.314;2023-02-15T08:38:37;6.85;;;5.30;;
31336;SDS011;22846;42.654;23.314;2023-02-15T08:41:09;7.07;;;5.07;;
31336;SDS011;22846;42.654;23.314;2023-02-15T08:43:36;7.65;;;4.60;;
31336;SDS011;22846;42.654;23.314;2023-02-15T08:46:03;7.85;;;4.95;;
31336;SDS011;22846;42.654;23.314;2023-02-15T08:48:28;7.60;;;5.40;;
31336;SDS011;22846;42.654;23.314;2023-02-15T08:50:54;7.65;;;5.43;;
31336;SDS011;22846;42.654;23.314;2023-02-15T08:53:19;10.00;;;5.07;;
31336;SDS011;22846;42.654;23.314;2023-02-15T08:55:46;6.38;;;5.00;;
31336;SDS011;22846;42.654;23.314;2023-02-15T08:58:12;7.20;;;5.15;;
31336;SDS011;22846;42.654;23.314;2023-02-15T09:00:38;7.38;;;5.18;;
31336;SDS011;22846;42.654;23.314;2023-02-15T09:03:03;7.70;;;5.43;;
31336;SDS011;22846;42.654;23.314;2023-02-15T09:05:29;7.05;;;4.57;;
31336;SDS011;22846;42.654;23.314;2023-02-15T09:07:54;6.25;;;5.22;;
31336;SDS011;22846;42.654;23.314;2023-02-15T09:10:19;7.70;;;5.45;;
31336;SDS011;22846;42.654;23.314;2023-02-15T09:12:45;9.43;;;5.50;;
31336;SDS011;22846;42.654;23.314;2023-02-15T09:15:10;6.50;;;4.75;;
31336;SDS011;22846;42.654;23.314;2023-02-15T09:17:36;7.50;;;5.07;;
31336;SDS011;22846;42.654;23.314;2023-02-15T09:20:01;7.10;;;5.03;;
31336;SDS011;22846;42.654;23.314;2023-02-15T09:22:27;8.05;;;5.20;;
31336;SDS011;22846;42.654;23.314;2023-02-15T09:24:53;5.40;;;4.60;;
31336;SDS011;22846;42.654;23.314;2023-02-15T09:27:18;6.38;;;5.30;;
31336;SDS011;22846;42.654;23.314;2023-02-15T09:29:44;5.78;;;4.70;;
31336;SDS011;22846;42.654;23.314;2023-02-15T09:32:09;6.22;;;4.82;;
31336;SDS011;22846;42.654;23.314;2023-02-15T09:34:38;8.73;;;4.55;;
31336;SDS011;22846;42.654;23.314;2023-02-15T09:37:04;7.60;;;5.07;;
31336;SDS011;22846;42.654;23.314;2023-02-15T09:39:30;5.97;;;5.03;;
31336;SDS011;22846;42.654;23.314;2023-02-15T10:03:37;5.00;;;4.18;;
31336;SDS011;22846;42.654;23.314;2023-02-15T10:06:17;4.80;;;3.83;;
31336;SDS011;22846;42.654;23.314;2023-02-15T10:14:37;4.65;;;3.75;;
31336;SDS011;22846;42.654;23.314;2023-02-15T10:31:17;5.88;;;3.95;;
31336;SDS011;22846;42.654;23.314;2023-02-15T10:34:00;5.90;;;4.00;;
31336;SDS011;22846;42.654;23.314;2023-02-15T10:39:18;4.38;;;3.78;;
31336;SDS011;22846;42.654;23.314;2023-02-15T10:44:22;3.65;;;3.33;;
31336;SDS011;22846;42.654;23.314;2023-02-15T10:52:33;3.85;;;3.45;;
31336;SDS011;22846;42.654;23.314;2023-02-15T10:58:03;4.47;;;3.30;;
31336;SDS011;22846;42.654;23.314;2023-02-15T11:06:07;3.65;;;3.13;;
31336;SDS011;22846;42.654;23.314;2023-02-15T11:09:20;4.90;;;3.40;;
31336;SDS011;22846;42.654;23.314;2023-02-15T11:11:37;3.40;;;3.05;;
31336;SDS011;22846;42.654;23.314;2023-02-15T11:14:13;3.83;;;3.10;;
31336;SDS011;22846;42.654;23.314;2023-02-15T11:19:21;4.10;;;3.10;;
31336;SDS011;22846;42.654;23.314;2023-02-15T11:21:50;4.35;;;3.53;;
31336;SDS011;22846;42.654;23.314;2023-02-15T11:24:20;3.97;;;3.28;;
31336;SDS011;22846;42.654;23.314;2023-02-15T11:32:03;3.45;;;3.15;;
31336;SDS011;22846;42.654;23.314;2023-02-15T11:34:37;4.32;;;3.42;;
31336;SDS011;22846;42.654;23.314;2023-02-15T11:37:15;7.38;;;3.42;;
31336;SDS011;22846;42.654;23.314;2023-02-15T11:39:44;8.13;;;4.15;;
31336;SDS011;22846;42.654;23.314;2023-02-15T11:42:16;11.77;;;4.32;;
31336;SDS011;22846;42.654;23.314;2023-02-15T11:45:02;6.75;;;3.90;;
31336;SDS011;22846;42.654;23.314;2023-02-15T11:47:39;8.57;;;3.42;;
31336;SDS011;22846;42.654;23.314;2023-02-15T11:50:05;7.38;;;3.72;;
31336;SDS011;22846;42.654;23.314;2023-02-15T11:52:30;5.05;;;3.33;;
31336;SDS011;22846;42.654;23.314;2023-02-15T11:54:57;5.95;;;3.70;;
31336;SDS011;22846;42.654;23.314;2023-02-15T11:57:33;5.97;;;3.60;;
31336;SDS011;22846;42.654;23.314;2023-02-15T12:00:06;4.55;;;3.60;;
31336;SDS011;22846;42.654;23.314;2023-02-15T12:02:39;4.93;;;3.40;;
31336;SDS011;22846;42.654;23.314;2023-02-15T12:05:14;4.47;;;3.25;;
31336;SDS011;22846;42.654;23.314;2023-02-15T12:07:45;13.55;;;10.02;;
31336;SDS011;22846;42.654;23.314;2023-02-15T12:10:22;11.65;;;8.70;;
31336;SDS011;22846;42.654;23.314;2023-02-15T12:13:08;10.25;;;8.20;;
31336;SDS011;22846;42.654;23.314;2023-02-15T12:15:36;10.30;;;7.47;;
31336;SDS011;22846;42.654;23.314;2023-02-15T12:18:03;8.93;;;6.90;;
31336;SDS011;22846;42.654;23.314;2023-02-15T12:20:31;9.13;;;6.57;;
31336;SDS011;22846;42.654;23.314;2023-02-15T12:22:59;7.43;;;5.90;;
31336;SDS011;22846;42.654;23.314;2023-02-15T12:28:15;9.20;;;5.45;;
31336;SDS011;22846;42.654;23.314;2023-02-15T12:30:52;10.70;;;5.45;;
31336;SDS011;22846;42.654;23.314;2023-02-15T12:33:26;7.78;;;5.57;;
31336;SDS011;22846;42.654;23.314;2023-02-15T12:36:21;10.68;;;5.22;;
31336;SDS011;22846;42.654;23.314;2023-02-15T12:41:37;7.10;;;5.15;;
31336;SDS011;22846;42.654;23.314;2023-02-15T12:46:55;8.38;;;4.70;;
31336;SDS011;22846;42.654;23.314;2023-02-15T12:49:21;6.88;;;5.13;;
31336;SDS011;22846;42.654;23.314;2023-02-15T12:51:53;10.50;;;5.13;;
31336;SDS011;22846;42.654;23.314;2023-02-15T12:56:53;11.02;;;5.28;;
31336;SDS011;22846;42.654;23.314;2023-02-15T12:59:19;6.40;;;5.70;;
31336;SDS011;22846;42.654;23.314;2023-02-15T13:01:47;6.43;;;5.20;;
31336;SDS011;22846;42.654;23.314;2023-02-15T13:04:34;6.43;;;5.13;;
31336;SDS011;22846;42.654;23.314;2023-02-15T13:06:59;8.23;;;4.90;;
31336;SDS011;22846;42.654;23.314;2023-02-15T13:12:09;6.57;;;4.57;;
31336;SDS011;22846;42.654;23.314;2023-02-15T13:14:36;8.68;;;4.80;;
31336;SDS011;22846;42.654;23.314;2023-02-15T13:17:03;5.93;;;4.35;;
31336;SDS011;22846;42.654;23.314;2023-02-15T13:19:36;9.38;;;5.20;;
31336;SDS011;22846;42.654;23.314;2023-02-15T13:22:10;6.15;;;4.78;;
31336;SDS011;22846;42.654;23.314;2023-02-15T13:24:58;8.98;;;5.20;;
31336;SDS011;22846;42.654;23.314;2023-02-15T13:27:35;6.25;;;4.55;;
31336;SDS011;22846;42.654;23.314;2023-02-15T13:30:10;5.40;;;4.57;;
31336;SDS011;22846;42.654;23.314;2023-02-15T13:32:44;5.57;;;4.35;;
31336;SDS011;22846;42.654;23.314;2023-02-15T13:35:14;6.30;;;4.30;;
31336;SDS011;22846;42.654;23.314;2023-02-15T13:40:41;5.15;;;4.40;;
31336;SDS011;22846;42.654;23.314;2023-02-15T13:43:25;10.15;;;4.63;;
31336;SDS011;22846;42.654;23.314;2023-02-15T13:46:11;6.90;;;5.13;;
31336;SDS011;22846;42.654;23.314;2023-02-15T13:48:45;6.50;;;4.63;;
31336;SDS011;22846;42.654;23.314;2023-02-15T13:54:27;8.40;;;4.82;;
31336;SDS011;22846;42.654;23.314;2023-02-15T13:57:14;6.50;;;4.35;;
31336;SDS011;22846;42.654;23.314;2023-02-15T14:17:27;9.55;;;4.80;;
31336;SDS011;22846;42.654;23.314;2023-02-15T14:22:31;7.63;;;4.30;;
31336;SDS011;22846;42.654;23.314;2023-02-15T14:32:48;12.13;;;5.72;;
31336;SDS011;22846;42.654;23.314;2023-02-15T14:35:18;12.27;;;6.15;;
31336;SDS011;22846;42.654;23.314;2023-02-15T14:49:14;13.57;;;5.32;;
31336;SDS011;22846;42.654;23.314;2023-02-15T14:56:42;9.65;;;5.18;;
31336;SDS011;22846;42.654;23.314;2023-02-15T15:12:48;8.90;;;5.82;;
31336;SDS011;22846;42.654;23.314;2023-02-15T15:18:01;7.60;;;5.22;;
31336;SDS011;22846;42.654;23.314;2023-02-15T15:25:58;7.03;;;5.25;;
31336;SDS011;22846;42.654;23.314;2023-02-15T15:34:42;13.25;;;5.38;;
31336;SDS011;22846;42.654;23.314;2023-02-15T15:45:38;9.35;;;4.68;;
31336;SDS011;22846;42.654;23.314;2023-02-15T15:50:31;7.28;;;4.53;;
31336;SDS011;22846;42.654;23.314;2023-02-15T15:52:58;12.63;;;5.35;;
31336;SDS011;22846;42.654;23.314;2023-02-15T15:55:26;8.02;;;5.10;;
31336;SDS011;22846;42.654;23.314;2023-02-15T15:57:56;11.68;;;5.15;;
31336;SDS011;22846;42.654;23.314;2023-02-15T16:00:26;8.00;;;5.38;;
31336;SDS011;22846;42.654;23.314;2023-02-15T16:02:58;6.75;;;5.22;;
31336;SDS011;22846;42.654;23.314;2023-02-15T16:05:24;10.05;;;5.45;;
31336;SDS011;22846;42.654;23.314;2023-02-15T16:07:49;7.35;;;5.07;;
31336;SDS011;22846;42.654;23.314;2023-02-15T16:10:22;8.95;;;4.70;;
31336;SDS011;22846;42.654;23.314;2023-02-15T16:12:50;10.55;;;5.38;;
31336;SDS011;22846;42.654;23.314;2023-02-15T16:15:20;8.02;;;4.95;;
31336;SDS011;22846;42.654;23.314;2023-02-15T16:17:52;8.85;;;4.85;;
31336;SDS011;22846;42.654;23.314;2023-02-15T16:20:33;9.20;;;6.63;;
31336;SDS011;22846;42.654;23.314;2023-02-15T16:28:36;73.50;;;47.95;;
31336;SDS011;22846;42.654;23.314;2023-02-15T16:31:20;63.00;;;44.05;;
31336;SDS011;22846;42.654;23.314;2023-02-15T16:33:52;68.10;;;47.67;;
31336;SDS011;22846;42.654;23.314;2023-02-15T16:36:24;58.67;;;43.38;;
31336;SDS011;22846;42.654;23.314;2023-02-15T16:41:20;55.65;;;38.00;;
31336;SDS011;22846;42.654;23.314;2023-02-15T16:43:49;49.80;;;35.45;;
31336;SDS011;22846;42.654;23.314;2023-02-15T16:46:20;45.00;;;33.77;;
31336;SDS011;22846;42.654;23.314;2023-02-15T16:49:14;44.90;;;31.95;;
31336;SDS011;22846;42.654;23.314;2023-02-15T16:51:43;44.45;;;29.60;;
31336;SDS011;22846;42.654;23.314;2023-02-15T16:54:16;44.47;;;28.55;;
31336;SDS011;22846;42.654;23.314;2023-02-15T16:56:46;43.72;;;31.35;;
31336;SDS011;22846;42.654;23.314;2023-02-15T17:01:49;58.38;;;44.80;;
31336;SDS011;22846;42.654;23.314;2023-02-15T17:09:48;45.65;;;34.00;;
31336;SDS011;22846;42.654;23.314;2023-02-15T17:18:24;34.80;;;26.00;;
31336;SDS011;22846;42.654;23.314;2023-02-15T17:20:54;38.78;;;25.65;;
31336;SDS011;22846;42.654;23.314;2023-02-15T17:23:25;40.72;;;24.30;;
31336;SDS011;22846;42.654;23.314;2023-02-15T17:25:54;34.53;;;23.33;;
31336;SDS011;22846;42.654;23.314;2023-02-15T17:28:22;34.72;;;22.48;;
31336;SDS011;22846;42.654;23.314;2023-02-15T17:30:51;34.58;;;22.23;;
31336;SDS011;22846;42.654;23.314;2023-02-15T17:38:34;34.30;;;21.27;;
31336;SDS011;22846;42.654;23.314;2023-02-15T17:41:01;33.47;;;20.75;;
31336;SDS011;22846;42.654;23.314;2023-02-15T17:43:27;34.67;;;19.63;;
31336;SDS011;22846;42.654;23.314;2023-02-15T17:45:53;35.28;;;20.30;;
31336;SDS011;22846;42.654;23.314;2023-02-15T17:48:41;29.35;;;18.92;;
31336;SDS011;22846;42.654;23.314;2023-02-15T17:51:06;27.38;;;18.75;;
31336;SDS011;22846;42.654;23.314;2023-02-15T17:53:35;27.48;;;18.42;;
31336;SDS011;22846;42.654;23.314;2023-02-15T17:56:01;27.92;;;18.63;;
31336;SDS011;22846;42.654;23.314;2023-02-15T18:01:00;26.90;;;16.92;;
31336;SDS011;22846;42.654;23.314;2023-02-15T18:03:50;22.20;;;16.60;;
31336;SDS011;22846;42.654;23.314;2023-02-15T18:06:36;29.63;;;22.05;;
31336;SDS011;22846;42.654;23.314;2023-02-15T18:09:22;96.05;;;65.75;;
31336;SDS011;22846;42.654;23.314;2023-02-15T18:12:20;66.20;;;46.13;;
31336;SDS011;22846;42.654;23.314;2023-02-15T18:14:46;62.83;;;42.08;;
31336;SDS011;22846;42.654;23.314;2023-02-15T18:17:12;56.47;;;39.63;;
31336;SDS011;22846;42.654;23.314;2023-02-15T18:19:39;51.90;;;37.17;;
31336;SDS011;22846;42.654;23.314;2023-02-15T18:22:12;49.83;;;35.15;;
31336;SDS011;22846;42.654;23.314;2023-02-15T18:24:40;46.03;;;31.27;;
31336;SDS011;22846;42.654;23.314;2023-02-15T18:27:05;49.25;;;31.35;;
31336;SDS011;22846;42.654;23.314;2023-02-15T18:29:31;48.53;;;31.90;;
31336;SDS011;22846;42.654;23.314;2023-02-15T18:31:56;47.35;;;29.92;;
31336;SDS011;22846;42.654;23.314;2023-02-15T18:34:32;39.08;;;28.50;;
31336;SDS011;22846;42.654;23.314;2023-02-15T18:37:03;41.47;;;26.85;;
31336;SDS011;22846;42.654;23.314;2023-02-15T18:39:40;35.90;;;25.92;;
31336;SDS011;22846;42.654;23.314;2023-02-15T18:42:24;36.85;;;25.15;;
31336;SDS011;22846;42.654;23.314;2023-02-15T18:44:55;35.22;;;24.35;;
31336;SDS011;22846;42.654;23.314;2023-02-15T18:47:24;35.38;;;24.00;;
31336;SDS011;22846;42.654;23.314;2023-02-15T18:49:49;31.23;;;23.73;;
31336;SDS011;22846;42.654;23.314;2023-02-15T18:52:16;57.47;;;40.38;;
31336;SDS011;22846;42.654;23.314;2023-02-15T18:54:44;77.45;;;57.30;;
31336;SDS011;22846;42.654;23.314;2023-02-15T18:57:13;67.53;;;49.88;;